<?xml version="1.0" encoding="UTF-8" standalone="no" ?>
<gpx xmlns="http://www.topografix.com/GPX/1/1" xmlns:xsi="http://www.w3.org/2001/XMLSchema-instance" xsi:schemaLocation="http://www.topografix.com/GPX/1/1 http://www.topografix.com/GPX/1/1/gpx.xsd" version="1.1" creator="VisuGPX - https://www.visugpx.com">
  <metadata>
    <name>Bleu - 10Km Parc</name>
  </metadata>
  <trk>
    <name><![CDATA[parcours bleu 10 km marche du 21/09/2025-21815850-21820690]]></name>
    <extensions>
      <line xmlns="http://www.topografix.com/GPX/gpx_style/0/2">
        <color>0000FF</color>
        <width>4</width>
      </line>
    </extensions>
    <trkseg>
      <trkpt lat="46.17137" lon="4.80174">
        <ele>175</ele>
        <time>2025-07-06T03:48:22Z</time>
      </trkpt>
      <trkpt lat="46.1715" lon="4.80225">
        <ele>175</ele>
        <time>2025-07-06T03:47:32Z</time>
      </trkpt>
      <trkpt lat="46.17167" lon="4.80309">
        <ele>174</ele>
        <time>2025-07-06T03:46:11Z</time>
      </trkpt>
      <trkpt lat="46.17161" lon="4.80313">
        <ele>174</ele>
        <time>2025-07-06T03:46:02Z</time>
      </trkpt>
      <trkpt lat="46.17158" lon="4.80333">
        <ele>173</ele>
        <time>2025-07-06T03:45:43Z</time>
      </trkpt>
      <trkpt lat="46.1717" lon="4.80348">
        <ele>173</ele>
        <time>2025-07-06T03:45:22Z</time>
      </trkpt>
      <trkpt lat="46.17189" lon="4.80408">
        <ele>174</ele>
        <time>2025-07-06T03:44:21Z</time>
      </trkpt>
      <trkpt lat="46.17199" lon="4.80442">
        <ele>174</ele>
        <time>2025-07-06T03:43:47Z</time>
      </trkpt>
      <trkpt lat="46.17172" lon="4.80466">
        <ele>174</ele>
        <time>2025-07-06T03:43:05Z</time>
      </trkpt>
      <trkpt lat="46.17176" lon="4.80546">
        <ele>175</ele>
        <time>2025-07-06T03:41:51Z</time>
      </trkpt>
      <trkpt lat="46.17194" lon="4.8063">
        <ele>175</ele>
        <time>2025-07-06T03:40:29Z</time>
      </trkpt>
      <trkpt lat="46.17185" lon="4.80643">
        <ele>175</ele>
        <time>2025-07-06T03:40:12Z</time>
      </trkpt>
      <trkpt lat="46.17192" lon="4.80673">
        <ele>174</ele>
        <time>2025-07-06T03:39:43Z</time>
      </trkpt>
      <trkpt lat="46.17241" lon="4.80948">
        <ele>172</ele>
        <time>2025-07-06T03:35:21Z</time>
      </trkpt>
      <trkpt lat="46.17261" lon="4.81247">
        <ele>174</ele>
        <time>2025-07-06T03:30:43Z</time>
      </trkpt>
      <trkpt lat="46.17294" lon="4.8131">
        <ele>175</ele>
        <time>2025-07-06T03:29:30Z</time>
      </trkpt>
      <trkpt lat="46.17338" lon="4.81344">
        <ele>176</ele>
        <time>2025-07-06T03:28:24Z</time>
      </trkpt>
      <trkpt lat="46.1743" lon="4.81369">
        <ele>173</ele>
        <time>2025-07-06T03:26:19Z</time>
      </trkpt>
      <trkpt lat="46.17449" lon="4.81382">
        <ele>174</ele>
        <time>2025-07-06T03:25:51Z</time>
      </trkpt>
      <trkpt lat="46.17471" lon="4.81402">
        <ele>174</ele>
        <time>2025-07-06T03:25:16Z</time>
      </trkpt>
      <trkpt lat="46.17489" lon="4.81517">
        <ele>175</ele>
        <time>2025-07-06T03:23:27Z</time>
      </trkpt>
      <trkpt lat="46.17462" lon="4.81599">
        <ele>176</ele>
        <time>2025-07-06T03:22:03Z</time>
      </trkpt>
      <trkpt lat="46.17377" lon="4.81684">
        <ele>175</ele>
        <time>2025-07-06T03:19:45Z</time>
      </trkpt>
      <trkpt lat="46.17314" lon="4.81716">
        <ele>176</ele>
        <time>2025-07-06T03:18:16Z</time>
      </trkpt>
      <trkpt lat="46.17288" lon="4.81717">
        <ele>176</ele>
        <time>2025-07-06T03:17:41Z</time>
      </trkpt>
      <trkpt lat="46.17259" lon="4.81751">
        <ele>176</ele>
        <time>2025-07-06T03:16:51Z</time>
      </trkpt>
      <trkpt lat="46.17265" lon="4.81743">
        <ele>176</ele>
        <time>2025-07-06T03:16:41Z</time>
      </trkpt>
      <trkpt lat="46.17218" lon="4.81753">
        <ele>178</ele>
        <time>2025-07-06T03:15:37Z</time>
      </trkpt>
      <trkpt lat="46.1722" lon="4.81919">
        <ele>176</ele>
        <time>2025-07-06T03:13:04Z</time>
      </trkpt>
      <trkpt lat="46.17153" lon="4.81874">
        <ele>176</ele>
        <time>2025-07-06T03:11:25Z</time>
      </trkpt>
      <trkpt lat="46.17094" lon="4.819">
        <ele>179</ele>
        <time>2025-07-06T03:10:03Z</time>
      </trkpt>
      <trkpt lat="46.17068" lon="4.81919">
        <ele>180</ele>
        <time>2025-07-06T03:09:24Z</time>
      </trkpt>
      <trkpt lat="46.17031" lon="4.81926">
        <ele>182</ele>
        <time>2025-07-06T03:08:34Z</time>
      </trkpt>
      <trkpt lat="46.16966" lon="4.81958">
        <ele>184</ele>
        <time>2025-07-06T03:07:02Z</time>
      </trkpt>
      <trkpt lat="46.16957" lon="4.8194">
        <ele>184</ele>
        <time>2025-07-06T03:06:42Z</time>
      </trkpt>
      <trkpt lat="46.1693" lon="4.81927">
        <ele>184</ele>
        <time>2025-07-06T03:06:04Z</time>
      </trkpt>
      <trkpt lat="46.1691" lon="4.81937">
        <ele>184</ele>
        <time>2025-07-06T03:05:36Z</time>
      </trkpt>
      <trkpt lat="46.16914" lon="4.81965">
        <ele>185</ele>
        <time>2025-07-06T03:05:09Z</time>
      </trkpt>
      <trkpt lat="46.16898" lon="4.82002">
        <ele>186</ele>
        <time>2025-07-06T03:04:29Z</time>
      </trkpt>
      <trkpt lat="46.16901" lon="4.82042">
        <ele>186</ele>
        <time>2025-07-06T03:03:52Z</time>
      </trkpt>
      <trkpt lat="46.16893" lon="4.8208">
        <ele>186</ele>
        <time>2025-07-06T03:03:15Z</time>
      </trkpt>
      <trkpt lat="46.16857" lon="4.82126">
        <ele>187</ele>
        <time>2025-07-06T03:02:11Z</time>
      </trkpt>
      <trkpt lat="46.16832" lon="4.82206">
        <ele>189</ele>
        <time>2025-07-06T03:00:50Z</time>
      </trkpt>
      <trkpt lat="46.16806" lon="4.8229">
        <ele>190</ele>
        <time>2025-07-06T02:59:25Z</time>
      </trkpt>
      <trkpt lat="46.16756" lon="4.82331">
        <ele>193</ele>
        <time>2025-07-06T02:58:08Z</time>
      </trkpt>
      <trkpt lat="46.16562" lon="4.82333">
        <ele>199</ele>
        <time>2025-07-06T02:53:49Z</time>
      </trkpt>
      <trkpt lat="46.16539" lon="4.82351">
        <ele>199</ele>
        <time>2025-07-06T02:53:14Z</time>
      </trkpt>
      <trkpt lat="46.164" lon="4.82327">
        <ele>198</ele>
        <time>2025-07-06T02:50:07Z</time>
      </trkpt>
      <trkpt lat="46.16328" lon="4.82298">
        <ele>197</ele>
        <time>2025-07-06T02:48:28Z</time>
      </trkpt>
      <trkpt lat="46.16249" lon="4.82208">
        <ele>194</ele>
        <time>2025-07-06T02:46:13Z</time>
      </trkpt>
      <trkpt lat="46.16157" lon="4.82225">
        <ele>195</ele>
        <time>2025-07-06T02:44:10Z</time>
      </trkpt>
      <trkpt lat="46.16029" lon="4.82294">
        <ele>199</ele>
        <time>2025-07-06T02:41:07Z</time>
      </trkpt>
      <trkpt lat="46.16062" lon="4.82368">
        <ele>202</ele>
        <time>2025-07-06T02:39:46Z</time>
      </trkpt>
      <trkpt lat="46.16069" lon="4.82488">
        <ele>206</ele>
        <time>2025-07-06T02:37:55Z</time>
      </trkpt>
      <trkpt lat="46.16092" lon="4.82547">
        <ele>207</ele>
        <time>2025-07-06T02:36:52Z</time>
      </trkpt>
      <trkpt lat="46.16104" lon="4.82592">
        <ele>206</ele>
        <time>2025-07-06T02:36:08Z</time>
      </trkpt>
      <trkpt lat="46.16089" lon="4.82793">
        <ele>201</ele>
        <time>2025-07-06T02:33:01Z</time>
      </trkpt>
      <trkpt lat="46.16076" lon="4.82824">
        <ele>200</ele>
        <time>2025-07-06T02:32:27Z</time>
      </trkpt>
      <trkpt lat="46.16038" lon="4.8284">
        <ele>200</ele>
        <time>2025-07-06T02:31:34Z</time>
      </trkpt>
      <trkpt lat="46.15929" lon="4.82842">
        <ele>203</ele>
        <time>2025-07-06T02:29:09Z</time>
      </trkpt>
      <trkpt lat="46.15855" lon="4.82884">
        <ele>203</ele>
        <time>2025-07-06T02:27:23Z</time>
      </trkpt>
      <trkpt lat="46.15815" lon="4.82892">
        <ele>204</ele>
        <time>2025-07-06T02:26:29Z</time>
      </trkpt>
      <trkpt lat="46.15812" lon="4.82962">
        <ele>204</ele>
        <time>2025-07-06T02:25:24Z</time>
      </trkpt>
      <trkpt lat="46.15772" lon="4.83307">
        <ele>207</ele>
        <time>2025-07-06T02:20:01Z</time>
      </trkpt>
      <trkpt lat="46.15765" lon="4.83361">
        <ele>206</ele>
        <time>2025-07-06T02:19:10Z</time>
      </trkpt>
      <trkpt lat="46.15711" lon="4.83524">
        <ele>205</ele>
        <time>2025-07-06T02:16:23Z</time>
      </trkpt>
      <trkpt lat="46.15529" lon="4.83231">
        <ele>213</ele>
        <time>2025-07-06T02:10:19Z</time>
      </trkpt>
      <trkpt lat="46.15513" lon="4.82879">
        <ele>213</ele>
        <time>2025-07-06T02:04:53Z</time>
      </trkpt>
      <trkpt lat="46.15529" lon="4.82692">
        <ele>214</ele>
        <time>2025-07-06T02:01:59Z</time>
      </trkpt>
      <trkpt lat="46.15435" lon="4.8266">
        <ele>216</ele>
        <time>2025-07-06T01:59:50Z</time>
      </trkpt>
      <trkpt lat="46.15455" lon="4.82576">
        <ele>215</ele>
        <time>2025-07-06T01:58:28Z</time>
      </trkpt>
      <trkpt lat="46.15454" lon="4.82493">
        <ele>212</ele>
        <time>2025-07-06T01:57:11Z</time>
      </trkpt>
      <trkpt lat="46.15449" lon="4.82412">
        <ele>210</ele>
        <time>2025-07-06T01:55:56Z</time>
      </trkpt>
      <trkpt lat="46.15423" lon="4.82318">
        <ele>208</ele>
        <time>2025-07-06T01:54:22Z</time>
      </trkpt>
      <trkpt lat="46.15412" lon="4.82282">
        <ele>207</ele>
        <time>2025-07-06T01:53:46Z</time>
      </trkpt>
      <trkpt lat="46.1541" lon="4.82245">
        <ele>205</ele>
        <time>2025-07-06T01:53:12Z</time>
      </trkpt>
      <trkpt lat="46.1542" lon="4.82206">
        <ele>204</ele>
        <time>2025-07-06T01:52:33Z</time>
      </trkpt>
      <trkpt lat="46.15452" lon="4.82154">
        <ele>199</ele>
        <time>2025-07-06T01:51:29Z</time>
      </trkpt>
      <trkpt lat="46.15496" lon="4.82098">
        <ele>195</ele>
        <time>2025-07-06T01:50:11Z</time>
      </trkpt>
      <trkpt lat="46.15564" lon="4.81974">
        <ele>193</ele>
        <time>2025-07-06T01:47:45Z</time>
      </trkpt>
      <trkpt lat="46.15572" lon="4.81861">
        <ele>186</ele>
        <time>2025-07-06T01:46:00Z</time>
      </trkpt>
      <trkpt lat="46.15573" lon="4.81637">
        <ele>179</ele>
        <time>2025-07-06T01:42:32Z</time>
      </trkpt>
      <trkpt lat="46.15589" lon="4.81403">
        <ele>174</ele>
        <time>2025-07-06T01:38:55Z</time>
      </trkpt>
      <trkpt lat="46.15559" lon="4.81172">
        <ele>170</ele>
        <time>2025-07-06T01:35:18Z</time>
      </trkpt>
      <trkpt lat="46.15558" lon="4.81096">
        <ele>170</ele>
        <time>2025-07-06T01:34:08Z</time>
      </trkpt>
      <trkpt lat="46.15567" lon="4.80983">
        <ele>169</ele>
        <time>2025-07-06T01:32:22Z</time>
      </trkpt>
      <trkpt lat="46.15565" lon="4.80507">
        <ele>171</ele>
        <time>2025-07-06T01:25:02Z</time>
      </trkpt>
      <trkpt lat="46.1566" lon="4.80468">
        <ele>170</ele>
        <time>2025-07-06T01:22:51Z</time>
      </trkpt>
      <trkpt lat="46.15805" lon="4.8043">
        <ele>171</ele>
        <time>2025-07-06T01:19:34Z</time>
      </trkpt>
      <trkpt lat="46.15946" lon="4.80277">
        <ele>169</ele>
        <time>2025-07-06T01:15:39Z</time>
      </trkpt>
      <trkpt lat="46.16065" lon="4.80105">
        <ele>169</ele>
        <time>2025-07-06T01:11:54Z</time>
      </trkpt>
      <trkpt lat="46.16292" lon="4.79699">
        <ele>168</ele>
        <time>2025-07-06T01:03:52Z</time>
      </trkpt>
      <trkpt lat="46.16352" lon="4.79519">
        <ele>168</ele>
        <time>2025-07-06T01:00:47Z</time>
      </trkpt>
      <trkpt lat="46.16486" lon="4.79246">
        <ele>169</ele>
        <time>2025-07-06T00:55:38Z</time>
      </trkpt>
      <trkpt lat="46.16498" lon="4.79137">
        <ele>171</ele>
        <time>2025-07-06T00:53:56Z</time>
      </trkpt>
      <trkpt lat="46.16568" lon="4.79043">
        <ele>169</ele>
        <time>2025-07-06T00:51:48Z</time>
      </trkpt>
      <trkpt lat="46.16662" lon="4.79359">
        <ele>172</ele>
        <time>2025-07-06T00:46:30Z</time>
      </trkpt>
      <trkpt lat="46.16862" lon="4.79618">
        <ele>175</ele>
        <time>2025-07-06T00:40:32Z</time>
      </trkpt>
      <trkpt lat="46.1707" lon="4.79884">
        <ele>175</ele>
        <time>2025-07-06T00:34:21Z</time>
      </trkpt>
      <trkpt lat="46.17088" lon="4.79957">
        <ele>174</ele>
        <time>2025-07-06T00:33:09Z</time>
      </trkpt>
      <trkpt lat="46.17137" lon="4.8017">
        <ele>175</ele>
        <time>2025-07-06T00:29:42Z</time>
      </trkpt>
    </trkseg>
  </trk>
</gpx>